Republic, Ohio
Current Conditions -  °F | °C
As of 8:53 PM on Saturday 20 Dec 2014 (Local Time) from KPCW Reporting Station
Unknown Precip Unknown Precip  
Wind Chill: 31°   Ceiling: 2500
Heat Index: 31°   Visibility: 10mi
Dew Point: 24°   Wind: 3mph
Humidity: 75%   Direction: 210°SSW
Pressure: 30.29"   Gusts: NA
Location:  41.12°N, 83.02°W
Report Text: KPCW 210153Z AUTO 21003KT 10SM UP OVC025 M01/M04 A3029 RMK AO2 T10051044
Loading
Personal Weather Stations






























Interactive Weather Map New forecast layout! Learn more

10-Day Weather Forecast

Advertisements
Track Severe Weather on mobile